Bethel Airport Airport (BET)

 

Airport Diagram
Current Weather/Forecast (VFR Conditions)
METAR PABE 100453Z 30007KT 10SM OVC034 16/09 A3000 RMK AO2 SLP160 T01560094
TAF PABE 092331Z 1000/1024 31009KT 4SM BR OVC015 FM100300 31010KT P6SM FEW015 BKN025 BKN050

All Charts

Inbound Traffic (Arrivals)

No inbound traffic.


Outbound Traffic (Departures)

No outbound traffic.